createdAt,value
2023-09-14T00:02:07.176Z,3.10
2023-09-14T00:05:11.112Z,2.70
2023-09-14T00:08:14.664Z,3.10
2023-09-14T00:11:17.609Z,2.40
2023-09-14T00:14:20.476Z,1.90
2023-09-14T00:17:23.480Z,6.10
2023-09-14T00:20:29.160Z,5.10
2023-09-14T00:23:32.091Z,2.70
2023-09-14T00:26:34.975Z,2.60
2023-09-14T00:29:37.878Z,2.90
2023-09-14T00:32:41.401Z,3.10
2023-09-14T00:35:48.082Z,2.30
2023-09-14T00:38:50.986Z,2.10
2023-09-14T00:41:53.924Z,3.40
2023-09-14T00:44:56.843Z,1.70
2023-09-14T00:48:03.445Z,1.60
2023-09-14T00:51:07.602Z,1.70
2023-09-14T00:54:10.594Z,2.30
2023-09-14T00:57:13.541Z,2.30
2023-09-14T01:00:17.800Z,2.10
2023-09-14T01:03:20.978Z,2.30
2023-09-14T01:06:26.070Z,3.20
2023-09-14T01:09:28.968Z,3.50
2023-09-14T01:12:33.603Z,3.90
2023-09-14T01:15:42.022Z,5.60
2023-09-14T01:18:59.143Z,3.40
2023-09-14T01:22:21.295Z,3.10
2023-09-14T01:25:42.275Z,3.50
2023-09-14T01:28:45.931Z,2.50
2023-09-14T01:31:49.101Z,5.20
2023-09-14T01:34:52.008Z,3.60
2023-09-14T01:37:56.684Z,4.00
2023-09-14T01:41:01.051Z,1.90
2023-09-14T01:44:05.656Z,3.20
2023-09-14T01:47:09.399Z,4.40
2023-09-14T01:50:12.291Z,4.30
2023-09-14T01:53:15.171Z,3.40
2023-09-14T01:56:18.183Z,4.60
2023-09-14T01:59:21.437Z,4.40
2023-09-14T02:02:26.592Z,3.70
2023-09-14T02:05:29.642Z,5.10
2023-09-14T02:08:32.602Z,6.70
2023-09-14T02:11:35.727Z,5.40
2023-09-14T02:14:38.652Z,7.20
2023-09-14T02:17:41.728Z,7.30
2023-09-14T02:20:44.980Z,8.10
2023-09-14T02:23:48.040Z,7.80
2023-09-14T02:26:52.755Z,7.90
2023-09-14T02:29:56.374Z,8.50
2023-09-14T02:33:01.360Z,9.10
2023-09-14T02:36:04.650Z,8.90
2023-09-14T02:39:07.804Z,8.60
2023-09-14T02:42:10.739Z,9.20
2023-09-14T02:45:13.643Z,7.90
2023-09-14T02:48:17.032Z,7.50
2023-09-14T02:51:19.948Z,10.20
2023-09-14T02:54:22.995Z,9.50
2023-09-14T02:57:26.609Z,9.00
2023-09-14T03:00:29.799Z,10.20
2023-09-14T03:03:32.850Z,7.80
2023-09-14T03:06:36.201Z,9.20
2023-09-14T03:09:39.227Z,8.10
2023-09-14T03:12:42.399Z,8.50
2023-09-14T03:15:45.691Z,9.80
2023-09-14T03:18:49.101Z,7.90
2023-09-14T03:21:52.309Z,8.60
2023-09-14T03:24:55.524Z,7.80
2023-09-14T03:27:58.584Z,7.10
2023-09-14T03:31:01.677Z,8.30
2023-09-14T03:34:06.645Z,7.20
2023-09-14T03:37:09.779Z,10.60
2023-09-14T03:40:12.814Z,7.30
2023-09-14T03:43:15.798Z,6.50
2023-09-14T03:46:19.018Z,6.20
2023-09-14T03:49:22.078Z,5.80
2023-09-14T03:52:25.536Z,7.80
2023-09-14T03:55:29.928Z,7.10
2023-09-14T03:58:32.912Z,5.40
2023-09-14T04:01:36.004Z,5.80
2023-09-14T04:04:43.185Z,5.70
2023-09-14T04:07:47.420Z,4.90
2023-09-14T04:10:52.583Z,5.00
2023-09-14T04:13:57.348Z,4.60
2023-09-14T04:17:01.806Z,3.80
2023-09-14T04:20:11.779Z,5.50
2023-09-14T04:23:15.271Z,5.00
2023-09-14T04:26:19.680Z,4.30
2023-09-14T04:29:22.756Z,4.30
2023-09-14T04:32:25.771Z,4.60
2023-09-14T04:35:28.839Z,3.60
2023-09-14T04:38:33.716Z,5.60
2023-09-14T04:41:37.951Z,3.70
2023-09-14T04:44:41.298Z,5.10
2023-09-14T04:47:44.456Z,5.20
2023-09-14T04:50:47.658Z,5.10
2023-09-14T04:53:50.708Z,5.70
2023-09-14T04:56:53.782Z,4.10
2023-09-14T04:59:56.840Z,4.60
2023-09-14T05:03:03.142Z,5.00
2023-09-14T05:06:06.284Z,4.90
2023-09-14T05:09:09.567Z,3.60
2023-09-14T05:12:12.729Z,4.20
2023-09-14T05:15:15.713Z,5.10
2023-09-14T05:18:18.724Z,4.40
2023-09-14T05:21:21.783Z,5.30
2023-09-14T05:24:25.301Z,5.50
2023-09-14T05:27:28.395Z,4.10
2023-09-14T05:30:33.617Z,4.90
2023-09-14T05:33:37.146Z,6.40
2023-09-14T05:36:40.147Z,4.50
2023-09-14T05:39:43.309Z,6.10
2023-09-14T05:42:47.088Z,5.90
2023-09-14T05:45:52.189Z,5.70
2023-09-14T05:48:55.774Z,6.90
2023-09-14T05:51:59.709Z,4.00
2023-09-14T05:55:06.651Z,4.40
2023-09-14T05:58:11.042Z,4.50
2023-09-14T06:01:15.639Z,4.50
2023-09-14T06:04:19.004Z,6.20
2023-09-14T06:07:26.535Z,4.90
2023-09-14T06:10:29.661Z,6.30
2023-09-14T06:13:32.670Z,6.10
2023-09-14T06:16:36.966Z,4.90
2023-09-14T06:19:40.110Z,5.80
2023-09-14T06:22:43.091Z,5.70
2023-09-14T06:25:46.036Z,5.00
2023-09-14T06:28:49.166Z,6.40
2023-09-14T06:31:52.357Z,5.90
2023-09-14T06:34:55.310Z,6.50
2023-09-14T06:37:58.391Z,5.60
2023-09-14T06:41:01.493Z,6.50
2023-09-14T06:44:05.077Z,5.90
2023-09-14T06:47:08.073Z,5.60
2023-09-14T06:50:11.070Z,5.70
2023-09-14T06:53:14.026Z,5.20
2023-09-14T06:56:16.935Z,5.40
2023-09-14T06:59:19.929Z,5.90
2023-09-14T07:02:22.934Z,6.00
2023-09-14T07:05:25.920Z,4.70
2023-09-14T07:08:29.207Z,6.10
2023-09-14T07:11:32.264Z,5.70
2023-09-14T07:14:35.337Z,5.80
2023-09-14T07:17:38.303Z,10.50
2023-09-14T07:20:41.282Z,6.50
2023-09-14T07:23:45.030Z,8.60
2023-09-14T07:26:48.478Z,5.70
2023-09-14T07:29:51.620Z,5.20
2023-09-14T07:32:54.928Z,5.90
2023-09-14T07:35:58.003Z,6.40
2023-09-14T07:39:00.999Z,6.80
2023-09-14T07:42:04.255Z,9.10
2023-09-14T07:45:09.156Z,6.30
2023-09-14T07:48:12.249Z,4.20
2023-09-14T07:51:15.349Z,6.10
2023-09-14T07:54:18.325Z,5.90
2023-09-14T07:57:21.507Z,3.70
2023-09-14T08:00:24.784Z,6.40
2023-09-14T08:03:29.068Z,3.30
2023-09-14T08:06:33.153Z,3.70
2023-09-14T08:09:36.116Z,5.80
2023-09-14T08:12:39.370Z,4.50
2023-09-14T08:15:42.698Z,6.70
2023-09-14T08:18:46.650Z,3.40
2023-09-14T08:21:50.285Z,3.20
2023-09-14T08:24:55.471Z,3.40
2023-09-14T08:27:58.626Z,3.90
2023-09-14T08:31:02.118Z,3.50
2023-09-14T08:34:05.291Z,5.80
2023-09-14T08:37:09.403Z,3.50
2023-09-14T08:40:16.256Z,3.90
2023-09-14T08:43:20.713Z,2.50
2023-09-14T08:46:25.650Z,3.90
2023-09-14T08:49:32.213Z,5.80
2023-09-14T08:52:36.736Z,4.20
2023-09-14T08:55:39.889Z,2.80
2023-09-14T08:58:45.476Z,3.40
2023-09-14T09:01:51.955Z,2.70
2023-09-14T09:04:55.205Z,4.40
2023-09-14T09:07:59.816Z,4.10
2023-09-14T09:11:04.081Z,4.40
2023-09-14T09:14:07.045Z,5.30
2023-09-14T09:17:10.087Z,2.90
2023-09-14T09:20:15.379Z,3.50
2023-09-14T09:23:22.082Z,2.70
2023-09-14T09:26:25.789Z,4.40
2023-09-14T09:29:28.948Z,2.50
2023-09-14T09:32:31.935Z,2.70
2023-09-14T09:35:38.381Z,2.30
2023-09-14T09:38:42.063Z,4.60
2023-09-14T09:41:47.121Z,2.90
2023-09-14T09:44:55.520Z,3.90
2023-09-14T09:48:02.319Z,4.90
2023-09-14T09:51:06.236Z,3.00
2023-09-14T09:54:09.290Z,2.20
2023-09-14T09:57:12.357Z,2.40
2023-09-14T10:00:16.284Z,2.40
2023-09-14T10:03:24.344Z,4.60
2023-09-14T10:06:27.920Z,3.90
2023-09-14T10:09:35.693Z,2.20
2023-09-14T10:12:40.264Z,2.40
2023-09-14T10:15:44.065Z,3.10
2023-09-14T10:18:50.131Z,2.30
2023-09-14T10:21:56.190Z,2.40
2023-09-14T10:24:59.838Z,3.00
2023-09-14T10:28:04.853Z,3.60
2023-09-14T10:31:10.734Z,2.70
2023-09-14T10:34:14.772Z,2.70
2023-09-14T10:37:20.415Z,3.40
2023-09-14T10:40:25.148Z,2.50
2023-09-14T10:43:29.009Z,2.90
2023-09-14T10:46:41.492Z,2.80
2023-09-14T10:49:45.870Z,2.50
2023-09-14T10:52:49.147Z,2.70
2023-09-14T10:55:52.217Z,4.00
2023-09-14T10:58:55.535Z,3.60
2023-09-14T11:05:12.336Z,3.70
2023-09-14T11:08:16.877Z,3.90
2023-09-14T11:11:39.744Z,2.80
2023-09-14T11:15:15.150Z,3.90
2023-09-14T11:18:18.962Z,4.00
2023-09-14T11:21:43.821Z,3.60
2023-09-14T11:24:49.668Z,4.50
2023-09-14T11:27:55.580Z,4.30
2023-09-14T11:31:00.111Z,4.90
2023-09-14T11:34:12.519Z,4.20
2023-09-14T11:37:20.429Z,3.10
2023-09-14T11:40:32.662Z,3.20
2023-09-14T11:47:14.933Z,5.30
2023-09-14T11:50:21.514Z,3.20
2023-09-14T11:53:25.968Z,5.80
2023-09-14T11:56:31.712Z,5.80
2023-09-14T11:59:35.483Z,5.20
2023-09-14T12:02:38.651Z,3.70
2023-09-14T12:05:41.769Z,4.40
2023-09-14T12:08:49.119Z,3.30
2023-09-14T12:11:52.190Z,3.60
2023-09-14T12:14:55.686Z,5.20
2023-09-14T12:17:58.729Z,3.70
2023-09-14T12:21:01.827Z,6.00
2023-09-14T12:24:05.335Z,3.40
2023-09-14T12:27:08.434Z,2.80
2023-09-14T12:30:12.957Z,3.80
2023-09-14T12:33:18.552Z,4.20
2023-09-14T12:36:21.755Z,3.90
2023-09-14T12:39:25.039Z,4.60
2023-09-14T12:42:28.126Z,6.60
2023-09-14T12:45:34.955Z,5.80
2023-09-14T12:48:38.188Z,3.10
2023-09-14T12:51:47.453Z,3.40
2023-09-14T12:54:51.162Z,2.90
2023-09-14T12:57:55.429Z,2.60
2023-09-14T13:00:58.412Z,4.20
2023-09-14T13:04:02.533Z,2.30
2023-09-14T13:07:05.661Z,3.80
2023-09-14T13:10:10.580Z,2.90
2023-09-14T13:13:15.544Z,4.00
2023-09-14T13:16:19.816Z,2.50
2023-09-14T13:19:26.903Z,2.70
2023-09-14T13:22:32.263Z,4.60
2023-09-14T13:25:36.787Z,2.20
2023-09-14T13:28:39.886Z,4.10
2023-09-14T13:31:43.478Z,3.70
2023-09-14T13:34:46.535Z,4.40
2023-09-14T13:37:58.275Z,2.70
2023-09-14T13:41:01.647Z,4.00
2023-09-14T13:44:05.042Z,2.80
2023-09-14T13:47:08.317Z,2.80
2023-09-14T13:50:11.720Z,1.90
2023-09-14T13:53:16.210Z,4.10
2023-09-14T13:56:20.202Z,3.70
2023-09-14T13:59:26.520Z,2.50
2023-09-14T14:02:29.670Z,3.10
2023-09-14T14:05:33.960Z,2.70
2023-09-14T14:08:36.949Z,3.50
2023-09-14T14:11:39.938Z,3.30
2023-09-14T14:14:42.956Z,2.10
2023-09-14T14:17:48.031Z,4.40
2023-09-14T14:20:51.116Z,3.20
2023-09-14T14:23:54.077Z,3.80
2023-09-14T14:26:58.101Z,4.10
2023-09-14T14:30:01.139Z,3.90
2023-09-14T14:33:13.229Z,3.30
2023-09-14T14:36:16.263Z,3.90
2023-09-14T14:39:19.555Z,3.70
2023-09-14T14:42:22.569Z,3.20
2023-09-14T14:45:27.252Z,3.10
2023-09-14T14:48:30.444Z,6.10
2023-09-14T14:51:33.785Z,5.10
2023-09-14T14:54:36.984Z,4.20
2023-09-14T14:57:39.928Z,2.80
2023-09-14T15:00:42.845Z,5.00
2023-09-14T15:03:45.927Z,3.20
2023-09-14T15:06:48.998Z,3.60
2023-09-14T15:09:52.048Z,5.60
2023-09-14T15:12:55.799Z,4.10
2023-09-14T15:15:59.044Z,3.50
2023-09-14T15:19:01.996Z,5.40
2023-09-14T15:22:05.033Z,4.60
2023-09-14T15:25:09.172Z,3.40
2023-09-14T15:28:12.218Z,4.30
2023-09-14T15:31:17.248Z,3.20
2023-09-14T15:34:20.697Z,3.80
2023-09-14T15:37:23.647Z,4.70
2023-09-14T15:40:26.653Z,2.80
2023-09-14T15:43:29.611Z,5.70
2023-09-14T15:46:33.592Z,5.00
2023-09-14T15:49:37.395Z,4.20
2023-09-14T15:52:40.388Z,3.30
2023-09-14T15:55:43.417Z,3.90
2023-09-14T15:58:49.880Z,4.80
2023-09-14T16:01:53.080Z,3.90
2023-09-14T16:04:57.600Z,3.60
2023-09-14T16:08:08.677Z,7.70
2023-09-14T16:11:11.652Z,4.20
2023-09-14T16:14:15.932Z,4.40
2023-09-14T16:17:18.841Z,4.20
2023-09-14T16:20:22.498Z,4.60
2023-09-14T16:23:26.297Z,8.00
2023-09-14T16:26:29.707Z,4.90
2023-09-14T16:29:33.171Z,5.90
2023-09-14T16:32:36.192Z,4.30
2023-09-14T16:35:40.397Z,5.90
2023-09-14T16:38:45.806Z,7.70
2023-09-14T16:41:49.204Z,9.10
2023-09-14T16:44:52.166Z,4.80
2023-09-14T16:47:57.006Z,5.00
2023-09-14T16:51:00.084Z,5.50
2023-09-14T16:54:03.121Z,5.10
2023-09-14T16:57:06.119Z,6.50
2023-09-14T17:00:10.169Z,5.80
2023-09-14T17:03:13.305Z,3.70
2023-09-14T17:06:17.819Z,5.50
2023-09-14T17:09:22.411Z,6.40
2023-09-14T17:12:26.125Z,5.50
2023-09-14T17:15:29.340Z,6.60
2023-09-14T17:18:33.502Z,6.70
2023-09-14T17:21:36.624Z,8.60
2023-09-14T17:24:40.797Z,6.50
2023-09-14T17:27:45.294Z,8.00
2023-09-14T17:30:48.791Z,11.40
2023-09-14T17:33:52.987Z,7.60
2023-09-14T17:36:57.659Z,8.10
2023-09-14T17:40:01.220Z,10.60
2023-09-14T17:43:06.051Z,9.90
2023-09-14T17:46:09.725Z,9.50
2023-09-14T17:49:12.839Z,14.10
2023-09-14T17:52:17.052Z,7.50
2023-09-14T17:55:21.974Z,6.50
2023-09-14T17:58:24.972Z,8.80
2023-09-14T18:01:28.293Z,8.70
2023-09-14T18:04:35.244Z,6.00
2023-09-14T18:07:38.431Z,6.50
2023-09-14T18:10:42.574Z,10.20
2023-09-14T18:13:45.556Z,8.30
2023-09-14T18:16:49.583Z,5.40
2023-09-14T18:19:52.719Z,8.70
2023-09-14T18:22:55.711Z,9.20
2023-09-14T18:25:59.263Z,6.60
2023-09-14T18:29:07.700Z,5.40
2023-09-14T18:32:12.349Z,13.30
2023-09-14T18:35:16.103Z,7.40
2023-09-14T18:38:19.048Z,6.20
2023-09-14T18:41:22.424Z,5.30
2023-09-14T18:44:26.407Z,6.50
2023-09-14T18:47:31.504Z,7.20
2023-09-14T18:50:36.846Z,5.80
2023-09-14T18:53:40.235Z,6.20
2023-09-14T18:56:43.595Z,5.40
2023-09-14T18:59:46.510Z,5.50
2023-09-14T19:02:49.526Z,6.90
2023-09-14T19:05:55.337Z,5.30
2023-09-14T19:08:58.299Z,7.40
2023-09-14T19:12:03.274Z,5.20
2023-09-14T19:15:06.961Z,5.80
2023-09-14T19:18:10.982Z,7.70
2023-09-14T19:21:13.859Z,5.60
2023-09-14T19:24:16.754Z,5.20
2023-09-14T19:27:19.769Z,6.30
2023-09-14T19:30:22.984Z,4.70
2023-09-14T19:33:26.130Z,4.80
2023-09-14T19:36:29.115Z,7.30
2023-09-14T19:39:32.074Z,5.90
2023-09-14T19:42:35.174Z,6.90
2023-09-14T19:45:38.181Z,7.90
2023-09-14T19:48:45.179Z,9.90
2023-09-14T19:51:48.422Z,6.90
2023-09-14T19:54:51.601Z,8.80
2023-09-14T19:57:54.524Z,7.50
2023-09-14T20:00:57.480Z,9.00
2023-09-14T20:04:00.696Z,8.90
2023-09-14T20:07:03.979Z,9.60
2023-09-14T20:10:07.729Z,8.90
2023-09-14T20:13:11.022Z,9.80
2023-09-14T20:16:14.282Z,6.90
2023-09-14T20:19:17.327Z,7.60
2023-09-14T20:22:20.389Z,9.10
2023-09-14T20:25:23.343Z,9.90
2023-09-14T20:28:27.114Z,8.00
2023-09-14T20:31:30.279Z,8.20
2023-09-14T20:34:33.827Z,5.90
2023-09-14T20:37:37.707Z,7.90
2023-09-14T20:40:40.985Z,8.70
2023-09-14T20:43:44.910Z,7.70
2023-09-14T20:46:48.911Z,8.00
2023-09-14T20:49:55.556Z,7.60
2023-09-14T20:52:58.731Z,7.70
2023-09-14T20:56:02.127Z,8.20
2023-09-14T20:59:06.336Z,6.60
2023-09-14T21:02:10.387Z,7.50
2023-09-14T21:05:13.543Z,6.20
2023-09-14T21:08:19.334Z,7.70
2023-09-14T21:11:23.808Z,7.40
2023-09-14T21:14:28.286Z,9.70
2023-09-14T21:17:31.306Z,6.90
2023-09-14T21:20:34.450Z,9.70
2023-09-14T21:23:39.080Z,11.30
2023-09-14T21:26:43.229Z,7.30
2023-09-14T21:29:49.816Z,5.70
2023-09-14T21:32:52.859Z,8.50
2023-09-14T21:35:58.061Z,5.30
2023-09-14T21:39:01.389Z,5.80
2023-09-14T21:42:05.400Z,7.50
2023-09-14T21:45:09.130Z,5.30
2023-09-14T21:48:12.105Z,6.00
2023-09-14T21:51:15.110Z,6.60
2023-09-14T21:54:17.959Z,7.70
2023-09-14T21:57:22.181Z,5.90
2023-09-14T22:00:27.363Z,5.50
2023-09-14T22:03:45.033Z,7.40
2023-09-14T22:06:52.733Z,7.90
2023-09-14T22:09:55.968Z,7.00
2023-09-14T22:12:59.749Z,6.10
2023-09-14T22:16:03.790Z,4.80
2023-09-14T22:19:06.964Z,8.30
2023-09-14T22:22:12.082Z,7.40
2023-09-14T22:25:16.270Z,7.20
2023-09-14T22:28:19.432Z,7.40
2023-09-14T22:31:22.540Z,7.20
2023-09-14T22:34:27.801Z,8.90
2023-09-14T22:37:39.958Z,5.30
2023-09-14T22:40:48.712Z,6.80
2023-09-14T22:43:51.614Z,9.00
2023-09-14T22:46:54.616Z,7.00
2023-09-14T22:49:57.858Z,5.90
2023-09-14T22:53:00.781Z,7.10
2023-09-14T22:56:05.139Z,6.20
2023-09-14T22:59:08.083Z,7.50
2023-09-14T23:02:11.005Z,7.00
2023-09-14T23:05:14.392Z,7.10
2023-09-14T23:08:17.371Z,7.80
2023-09-14T23:11:33.246Z,8.40
2023-09-14T23:14:36.367Z,8.40
2023-09-14T23:17:39.670Z,10.00
2023-09-14T23:20:42.794Z,8.00
2023-09-14T23:23:45.709Z,9.00
2023-09-14T23:26:49.535Z,10.30
2023-09-14T23:29:53.196Z,7.40
2023-09-14T23:32:57.889Z,9.30
2023-09-14T23:36:08.530Z,8.90
2023-09-14T23:39:19.102Z,6.80
2023-09-14T23:42:22.161Z,7.30
2023-09-14T23:45:25.589Z,9.50
2023-09-14T23:48:28.703Z,6.70
2023-09-14T23:51:31.721Z,5.10
2023-09-14T23:54:34.909Z,7.40
2023-09-14T23:57:37.992Z,8.20
